createdAt,value
2023-10-04T00:02:25.224Z,100.00
2023-10-04T00:04:53.319Z,100.00
2023-10-04T00:07:20.929Z,100.00
2023-10-04T00:09:48.613Z,100.00
2023-10-04T00:12:16.354Z,100.00
2023-10-04T00:14:43.989Z,100.00
2023-10-04T00:17:11.445Z,100.00
2023-10-04T00:19:40.487Z,100.00
2023-10-04T00:22:09.175Z,100.00
2023-10-04T00:24:38.941Z,100.00
2023-10-04T00:27:06.933Z,100.00
2023-10-04T00:29:34.469Z,100.00
2023-10-04T00:32:02.226Z,100.00
2023-10-04T00:34:30.349Z,100.00
2023-10-04T00:36:58.062Z,100.00
2023-10-04T00:39:26.430Z,100.00
2023-10-04T00:41:56.948Z,100.00
2023-10-04T00:44:24.568Z,100.00
2023-10-04T00:46:52.544Z,100.00
2023-10-04T00:49:20.290Z,100.00
2023-10-04T00:51:48.066Z,100.00
2023-10-04T00:54:17.158Z,100.00
2023-10-04T00:56:47.679Z,100.00
2023-10-04T00:59:18.271Z,100.00
2023-10-04T01:01:46.203Z,100.00
2023-10-04T01:04:14.049Z,100.00
2023-10-04T01:06:44.245Z,100.00
2023-10-04T01:09:12.580Z,100.00
2023-10-04T01:11:47.303Z,100.00
2023-10-04T01:14:27.125Z,100.00
2023-10-04T01:16:56.805Z,100.00
2023-10-04T01:19:24.627Z,100.00
2023-10-04T01:21:52.186Z,100.00
2023-10-04T01:24:20.779Z,100.00
2023-10-04T01:26:48.389Z,100.00
2023-10-04T01:29:16.990Z,100.00
2023-10-04T01:31:44.652Z,100.00
2023-10-04T01:34:14.771Z,100.00
2023-10-04T01:36:43.443Z,100.00
2023-10-04T01:39:20.966Z,100.00
2023-10-04T01:41:49.250Z,100.00
2023-10-04T01:44:17.441Z,100.00
2023-10-04T01:46:45.144Z,100.00
2023-10-04T01:49:13.367Z,100.00
2023-10-04T01:51:46.135Z,100.00
2023-10-04T01:54:16.977Z,100.00
2023-10-04T01:56:44.668Z,100.00
2023-10-04T01:59:15.789Z,100.00
2023-10-04T02:01:43.386Z,100.00
2023-10-04T02:04:11.013Z,100.00
2023-10-04T02:06:39.259Z,100.00
2023-10-04T02:09:12.368Z,100.00
2023-10-04T02:11:42.422Z,100.00
2023-10-04T02:14:11.647Z,100.00
2023-10-04T02:16:39.376Z,100.00
2023-10-04T02:19:07.275Z,100.00
2023-10-04T02:21:35.220Z,100.00
2023-10-04T02:24:03.769Z,100.00
2023-10-04T02:26:32.977Z,100.00
2023-10-04T02:29:00.631Z,100.00
2023-10-04T02:31:30.882Z,100.00
2023-10-04T02:33:58.766Z,100.00
2023-10-04T02:36:27.262Z,100.00
2023-10-04T02:38:56.797Z,100.00
2023-10-04T02:41:27.645Z,100.00
2023-10-04T02:43:55.820Z,100.00
2023-10-04T02:46:23.431Z,100.00
2023-10-04T02:48:51.149Z,100.00
2023-10-04T02:51:18.673Z,100.00
2023-10-04T02:53:46.969Z,100.00
2023-10-04T02:56:15.318Z,100.00
2023-10-04T02:58:45.754Z,100.00
2023-10-04T03:01:29.146Z,100.00
2023-10-04T03:03:57.535Z,100.00
2023-10-04T03:06:29.363Z,100.00
2023-10-04T03:08:59.288Z,100.00
2023-10-04T03:11:29.007Z,100.00
2023-10-04T03:14:00.717Z,100.00
2023-10-04T03:16:31.011Z,100.00
2023-10-04T03:18:59.441Z,100.00
2023-10-04T03:21:32.366Z,100.00
2023-10-04T03:24:01.509Z,100.00
2023-10-04T03:26:30.550Z,100.00
2023-10-04T03:29:02.289Z,100.00
2023-10-04T03:31:34.825Z,100.00
2023-10-04T03:34:05.851Z,100.00
2023-10-04T03:36:36.312Z,100.00
2023-10-04T03:39:11.677Z,100.00
2023-10-04T03:41:43.657Z,100.00
2023-10-04T03:44:13.181Z,100.00
2023-10-04T03:46:41.101Z,100.00
2023-10-04T03:49:08.888Z,100.00
2023-10-04T03:51:36.557Z,100.00
2023-10-04T03:54:08.903Z,100.00
2023-10-04T03:56:42.657Z,100.00
2023-10-04T03:59:12.382Z,100.00
2023-10-04T04:01:40.303Z,100.00
2023-10-04T04:04:16.213Z,100.00
2023-10-04T04:06:45.211Z,100.00
2023-10-04T04:09:14.390Z,100.00
2023-10-04T04:11:42.354Z,100.00
2023-10-04T04:14:10.029Z,100.00
2023-10-04T04:16:39.522Z,100.00
2023-10-04T04:19:09.230Z,100.00
2023-10-04T04:21:37.415Z,100.00
2023-10-04T04:24:11.259Z,100.00
2023-10-04T04:26:40.861Z,100.00
2023-10-04T04:29:11.299Z,100.00
2023-10-04T04:31:41.988Z,100.00
2023-10-04T04:34:15.025Z,100.00
2023-10-04T04:36:43.698Z,100.00
2023-10-04T04:39:19.691Z,100.00
2023-10-04T04:41:52.820Z,100.00
2023-10-04T04:44:30.534Z,100.00
2023-10-04T04:46:58.992Z,100.00
2023-10-04T04:49:27.409Z,100.00
2023-10-04T04:51:56.854Z,100.00
2023-10-04T04:54:25.196Z,100.00
2023-10-04T04:56:55.297Z,100.00
2023-10-04T04:59:25.859Z,100.00
2023-10-04T05:01:56.925Z,100.00
2023-10-04T05:04:24.696Z,100.00
2023-10-04T05:06:52.756Z,100.00
2023-10-04T05:09:20.526Z,100.00
2023-10-04T05:11:48.240Z,100.00
2023-10-04T05:14:16.006Z,100.00
2023-10-04T05:16:43.617Z,100.00
2023-10-04T05:19:11.579Z,100.00
2023-10-04T05:21:39.333Z,100.00
2023-10-04T05:24:08.012Z,100.00
2023-10-04T05:26:37.119Z,100.00
2023-10-04T05:29:05.431Z,100.00
2023-10-04T05:31:33.238Z,100.00
2023-10-04T05:34:01.018Z,100.00
2023-10-04T05:36:28.721Z,100.00
2023-10-04T05:38:57.007Z,100.00
2023-10-04T05:41:26.714Z,100.00
2023-10-04T05:43:54.355Z,100.00
2023-10-04T05:46:21.972Z,100.00
2023-10-04T05:53:07.085Z,100.00
2023-10-04T05:55:36.718Z,100.00
2023-10-04T05:58:09.192Z,100.00
2023-10-04T06:00:44.127Z,100.00
2023-10-04T06:03:13.085Z,100.00
2023-10-04T06:05:42.149Z,100.00
2023-10-04T06:08:22.403Z,100.00
2023-10-04T06:10:52.629Z,100.00
2023-10-04T06:13:24.600Z,100.00
2023-10-04T06:15:57.525Z,100.00
2023-10-04T06:18:31.390Z,100.00
2023-10-04T06:21:00.963Z,100.00
2023-10-04T06:23:32.671Z,100.00
2023-10-04T06:26:01.486Z,100.00
2023-10-04T06:28:30.521Z,100.00
2023-10-04T06:30:58.373Z,100.00
2023-10-04T06:33:26.916Z,100.00
2023-10-04T06:35:54.806Z,100.00
2023-10-04T06:38:22.466Z,100.00
2023-10-04T06:40:50.023Z,100.00
2023-10-04T06:43:17.489Z,100.00
2023-10-04T06:45:45.287Z,100.00
2023-10-04T06:48:13.098Z,100.00
2023-10-04T06:50:41.366Z,100.00
2023-10-04T06:53:14.310Z,100.00
2023-10-04T06:55:43.140Z,100.00
2023-10-04T06:58:13.014Z,100.00
2023-10-04T07:00:42.985Z,100.00
2023-10-04T07:03:12.012Z,100.00
2023-10-04T07:05:41.886Z,100.00
2023-10-04T07:08:14.964Z,100.00
2023-10-04T07:10:46.834Z,100.00
2023-10-04T07:13:15.301Z,100.00
2023-10-04T07:15:44.119Z,100.00
2023-10-04T07:18:14.516Z,100.00
2023-10-04T07:20:43.107Z,100.00
2023-10-04T07:23:12.534Z,100.00
2023-10-04T07:25:51.601Z,100.00
2023-10-04T07:28:20.108Z,100.00
2023-10-04T07:30:48.525Z,100.00
2023-10-04T07:33:16.383Z,100.00
2023-10-04T07:35:44.016Z,100.00
2023-10-04T07:38:11.836Z,100.00
2023-10-04T07:40:40.630Z,100.00
2023-10-04T07:43:08.883Z,100.00
2023-10-04T07:45:36.705Z,100.00
2023-10-04T07:48:04.944Z,100.00
2023-10-04T07:50:33.129Z,100.00
2023-10-04T07:53:06.716Z,100.00
2023-10-04T07:55:35.375Z,100.00
2023-10-04T07:58:05.560Z,100.00
2023-10-04T08:00:38.978Z,100.00
2023-10-04T08:03:08.662Z,100.00
2023-10-04T08:05:37.652Z,100.00
2023-10-04T08:08:07.533Z,100.00
2023-10-04T08:10:37.583Z,100.00
2023-10-04T08:13:06.620Z,100.00
2023-10-04T08:15:39.349Z,100.00
2023-10-04T08:18:07.833Z,100.00
2023-10-04T08:20:38.289Z,100.00
2023-10-04T08:23:06.387Z,100.00
2023-10-04T08:25:35.854Z,100.00
2023-10-04T08:28:06.777Z,100.00
2023-10-04T08:30:34.434Z,100.00
2023-10-04T08:33:02.482Z,100.00
2023-10-04T08:35:30.740Z,100.00
2023-10-04T08:38:01.756Z,100.00
2023-10-04T08:40:30.258Z,100.00
2023-10-04T08:43:01.755Z,100.00
2023-10-04T08:45:37.021Z,100.00
2023-10-04T08:48:05.599Z,100.00
2023-10-04T08:51:10.200Z,100.00
2023-10-04T08:53:57.850Z,100.00
2023-10-04T08:56:30.030Z,100.00
2023-10-04T08:59:00.814Z,100.00
2023-10-04T09:01:31.111Z,100.00
2023-10-04T09:04:02.592Z,100.00
2023-10-04T09:06:30.856Z,100.00
2023-10-04T09:08:59.459Z,100.00
2023-10-04T09:11:26.994Z,100.00
2023-10-04T09:13:55.407Z,100.00
2023-10-04T09:16:25.658Z,100.00
2023-10-04T09:19:08.489Z,100.00
2023-10-04T09:21:38.349Z,100.00
2023-10-04T09:24:12.951Z,100.00
2023-10-04T09:27:02.373Z,100.00
2023-10-04T09:29:31.864Z,100.00
2023-10-04T09:32:01.067Z,100.00
2023-10-04T09:34:29.874Z,100.00
2023-10-04T09:36:58.508Z,100.00
2023-10-04T09:39:32.993Z,100.00
2023-10-04T09:42:05.836Z,100.00
2023-10-04T09:44:37.526Z,100.00
2023-10-04T09:47:06.440Z,96.03
2023-10-04T09:49:37.358Z,93.13
2023-10-04T09:52:12.878Z,91.28
2023-10-04T09:54:41.161Z,90.03
2023-10-04T09:57:13.908Z,86.37
2023-10-04T09:59:44.891Z,88.88
2023-10-04T10:02:17.590Z,85.90
2023-10-04T10:04:46.152Z,83.41
2023-10-04T10:07:17.673Z,83.26
2023-10-04T10:10:00.500Z,78.97
2023-10-04T10:12:32.544Z,76.05
2023-10-04T10:15:05.598Z,80.23
2023-10-04T10:17:35.409Z,78.68
2023-10-04T10:20:05.664Z,76.36
2023-10-04T10:22:34.047Z,75.69
2023-10-04T10:25:03.642Z,80.28
2023-10-04T10:27:31.196Z,78.05
2023-10-04T10:30:06.627Z,74.03
2023-10-04T10:32:34.172Z,78.16
2023-10-04T10:35:08.059Z,76.45
2023-10-04T10:37:40.072Z,74.49
2023-10-04T10:40:33.674Z,74.30
2023-10-04T10:43:08.985Z,74.38
2023-10-04T10:45:36.808Z,73.46
2023-10-04T10:48:09.985Z,74.76
2023-10-04T10:50:39.582Z,73.85
2023-10-04T10:53:12.131Z,72.74
2023-10-04T10:55:44.684Z,74.28
2023-10-04T10:58:12.965Z,72.87
2023-10-04T11:00:40.658Z,71.78
2023-10-04T11:03:12.670Z,71.41
2023-10-04T11:05:42.121Z,73.05
2023-10-04T11:08:14.043Z,73.70
2023-10-04T11:10:42.770Z,76.23
2023-10-04T11:13:19.363Z,76.86
2023-10-04T11:15:48.039Z,81.25
2023-10-04T11:18:16.134Z,83.75
2023-10-04T11:20:44.394Z,83.70
2023-10-04T11:23:12.330Z,83.80
2023-10-04T11:25:40.051Z,83.91
2023-10-04T11:28:08.853Z,80.52
2023-10-04T11:30:36.768Z,81.12
2023-10-04T11:33:05.321Z,81.64
2023-10-04T11:35:34.736Z,74.71
2023-10-04T11:38:07.583Z,73.70
2023-10-04T11:40:35.634Z,70.76
2023-10-04T11:43:05.722Z,70.18
2023-10-04T11:45:33.913Z,68.20
2023-10-04T11:48:07.657Z,69.62
2023-10-04T11:50:46.443Z,73.06
2023-10-04T11:53:16.407Z,72.21
2023-10-04T11:55:44.221Z,74.84
2023-10-04T11:58:12.975Z,75.11
2023-10-04T12:00:40.907Z,75.62
2023-10-04T12:03:11.109Z,77.58
2023-10-04T12:05:38.944Z,79.20
2023-10-04T12:08:08.012Z,81.75
2023-10-04T12:10:35.606Z,82.40
2023-10-04T12:13:03.355Z,83.01
2023-10-04T12:15:30.959Z,82.67
2023-10-04T12:17:58.495Z,84.78
2023-10-04T12:20:26.157Z,83.20
2023-10-04T12:22:53.863Z,83.63
2023-10-04T12:25:23.424Z,82.92
2023-10-04T12:27:52.911Z,83.30
2023-10-04T12:30:22.535Z,84.79
2023-10-04T12:32:50.437Z,83.06
2023-10-04T12:35:18.173Z,82.92
2023-10-04T12:37:46.178Z,83.85
2023-10-04T12:40:24.998Z,82.60
2023-10-04T12:42:54.038Z,81.29
2023-10-04T12:45:22.490Z,82.53
2023-10-04T12:47:50.246Z,82.68
2023-10-04T12:50:17.808Z,83.82
2023-10-04T12:52:46.878Z,82.97
2023-10-04T12:55:15.598Z,85.12
2023-10-04T12:57:45.120Z,86.48
2023-10-04T13:00:17.069Z,83.95
2023-10-04T13:02:45.673Z,82.29
2023-10-04T13:05:15.843Z,82.01
2023-10-04T13:07:44.290Z,84.87
2023-10-04T13:10:12.604Z,79.97
2023-10-04T13:12:41.197Z,78.44
2023-10-04T13:15:12.152Z,79.13
2023-10-04T13:17:41.095Z,80.73
2023-10-04T13:20:11.743Z,83.37
2023-10-04T13:22:39.937Z,82.48
2023-10-04T13:25:08.450Z,82.33
2023-10-04T13:27:36.466Z,85.25
2023-10-04T13:30:05.715Z,85.02
2023-10-04T13:32:35.102Z,87.42
2023-10-04T13:35:03.111Z,86.88
2023-10-04T13:37:30.765Z,88.69
2023-10-04T13:39:58.434Z,90.11
2023-10-04T13:42:29.205Z,90.18
2023-10-04T13:44:59.122Z,90.79
2023-10-04T13:47:27.269Z,89.88
2023-10-04T13:49:55.089Z,90.34
2023-10-04T13:52:23.479Z,87.84
2023-10-04T13:54:55.625Z,86.58
2023-10-04T13:57:25.408Z,84.30
2023-10-04T13:59:52.959Z,84.73
2023-10-04T14:02:20.772Z,83.37
2023-10-04T14:04:48.578Z,82.27
2023-10-04T14:07:17.879Z,81.65
2023-10-04T14:09:45.665Z,81.40
2023-10-04T14:12:13.310Z,81.69
2023-10-04T14:14:40.845Z,78.61
2023-10-04T14:17:09.940Z,80.22
2023-10-04T14:19:39.823Z,80.26
2023-10-04T14:22:07.740Z,79.72
2023-10-04T14:24:35.342Z,78.41
2023-10-04T14:27:04.207Z,78.60
2023-10-04T14:29:32.025Z,78.38
2023-10-04T14:32:00.659Z,77.88
2023-10-04T14:34:28.270Z,78.35
2023-10-04T14:36:56.356Z,78.66
2023-10-04T14:39:25.124Z,78.84
2023-10-04T14:41:52.759Z,79.34
2023-10-04T14:44:20.277Z,80.36
2023-10-04T14:46:47.944Z,80.98
2023-10-04T14:49:17.208Z,81.66
2023-10-04T14:51:44.799Z,80.67
2023-10-04T14:54:12.376Z,79.58
2023-10-04T14:56:39.881Z,81.08
2023-10-04T14:59:07.395Z,80.19
2023-10-04T15:01:35.362Z,79.49
2023-10-04T15:04:04.033Z,78.61
2023-10-04T15:06:32.150Z,77.99
2023-10-04T15:08:59.726Z,78.01
2023-10-04T15:11:30.969Z,79.84
2023-10-04T15:13:59.673Z,80.81
2023-10-04T15:16:27.355Z,82.57
2023-10-04T15:18:56.130Z,82.53
2023-10-04T15:21:23.819Z,85.46
2023-10-04T15:23:51.490Z,87.37
2023-10-04T15:26:20.350Z,89.42
2023-10-04T15:28:48.347Z,90.77
2023-10-04T15:31:18.483Z,92.41
2023-10-04T15:33:47.155Z,93.56
2023-10-04T15:36:18.332Z,94.41
2023-10-04T15:38:47.283Z,95.89
2023-10-04T15:41:15.373Z,98.41
2023-10-04T15:43:43.868Z,97.87
2023-10-04T15:46:11.629Z,97.96
2023-10-04T15:48:40.006Z,99.27
2023-10-04T15:51:09.092Z,99.98
2023-10-04T15:53:37.062Z,100.00
2023-10-04T15:56:04.936Z,100.00
2023-10-04T15:58:33.703Z,100.00
2023-10-04T16:01:02.271Z,100.00
2023-10-04T16:03:32.074Z,100.00
2023-10-04T16:06:01.824Z,100.00
2023-10-04T16:08:30.093Z,100.00
2023-10-04T16:10:59.510Z,100.00
2023-10-04T16:13:27.264Z,100.00
2023-10-04T16:15:55.003Z,100.00
2023-10-04T16:18:28.069Z,100.00
2023-10-04T16:21:01.112Z,100.00
2023-10-04T16:23:30.405Z,100.00
2023-10-04T16:25:57.942Z,100.00
2023-10-04T16:28:25.555Z,100.00
2023-10-04T16:30:53.099Z,100.00
2023-10-04T16:33:20.758Z,100.00
2023-10-04T16:35:48.575Z,100.00
2023-10-04T16:38:16.973Z,100.00
2023-10-04T16:40:44.540Z,100.00
2023-10-04T16:43:13.536Z,100.00
2023-10-04T16:45:41.282Z,100.00
2023-10-04T16:48:09.021Z,100.00
2023-10-04T16:50:36.896Z,100.00
2023-10-04T16:53:04.744Z,100.00
2023-10-04T16:55:32.322Z,100.00
2023-10-04T16:57:59.895Z,100.00
2023-10-04T17:00:28.342Z,100.00
2023-10-04T17:02:55.913Z,100.00
2023-10-04T17:05:23.436Z,100.00
2023-10-04T17:07:51.198Z,100.00
2023-10-04T17:10:18.941Z,100.00
2023-10-04T17:12:47.056Z,100.00
2023-10-04T17:15:14.838Z,100.00
2023-10-04T17:17:43.707Z,100.00
2023-10-04T17:20:12.339Z,100.00
2023-10-04T17:22:40.243Z,100.00
2023-10-04T17:25:09.399Z,100.00
2023-10-04T17:27:37.111Z,100.00
2023-10-04T17:30:08.030Z,100.00
2023-10-04T17:32:35.665Z,100.00
2023-10-04T17:35:09.237Z,100.00
2023-10-04T17:37:36.877Z,100.00
2023-10-04T17:40:04.904Z,100.00
2023-10-04T17:42:32.885Z,100.00
2023-10-04T17:45:00.501Z,100.00
2023-10-04T17:47:28.115Z,100.00
2023-10-04T17:49:55.991Z,100.00
2023-10-04T17:52:26.216Z,100.00
2023-10-04T17:54:54.702Z,100.00
2023-10-04T17:57:23.478Z,100.00
2023-10-04T17:59:51.422Z,100.00
2023-10-04T18:02:18.980Z,100.00
2023-10-04T18:04:47.508Z,100.00
2023-10-04T18:07:15.556Z,100.00
2023-10-04T18:09:43.276Z,100.00
2023-10-04T18:12:11.558Z,100.00
2023-10-04T18:14:42.219Z,100.00
2023-10-04T18:17:09.808Z,100.00
2023-10-04T18:19:37.779Z,100.00
2023-10-04T18:22:05.500Z,100.00
2023-10-04T18:24:34.305Z,100.00
2023-10-04T18:27:02.595Z,100.00
2023-10-04T18:29:30.186Z,100.00
2023-10-04T18:31:59.162Z,100.00
2023-10-04T18:34:28.656Z,100.00
2023-10-04T18:36:56.481Z,100.00
2023-10-04T18:39:29.588Z,100.00
2023-10-04T18:41:57.755Z,100.00
2023-10-04T18:44:26.068Z,100.00
2023-10-04T18:46:54.096Z,100.00
2023-10-04T18:49:22.781Z,100.00
2023-10-04T18:51:50.677Z,100.00
2023-10-04T18:54:18.189Z,100.00
2023-10-04T18:56:45.749Z,100.00
2023-10-04T18:59:14.489Z,100.00
2023-10-04T19:01:42.637Z,100.00
2023-10-04T19:04:11.518Z,100.00
2023-10-04T19:06:40.598Z,100.00
2023-10-04T19:09:10.996Z,100.00
2023-10-04T19:11:38.632Z,100.00
2023-10-04T19:14:07.047Z,100.00
2023-10-04T19:16:35.412Z,100.00
2023-10-04T19:19:05.178Z,100.00
2023-10-04T19:21:33.018Z,100.00
2023-10-04T19:24:02.482Z,100.00
2023-10-04T19:26:30.142Z,100.00
2023-10-04T19:28:58.625Z,100.00
2023-10-04T19:31:26.835Z,100.00
2023-10-04T19:33:56.491Z,100.00
2023-10-04T19:36:25.439Z,100.00
2023-10-04T19:38:53.117Z,100.00
2023-10-04T19:41:20.793Z,100.00
2023-10-04T19:43:48.336Z,100.00
2023-10-04T19:46:16.066Z,100.00
2023-10-04T19:48:43.576Z,100.00
2023-10-04T19:51:11.965Z,100.00
2023-10-04T19:53:39.519Z,100.00
2023-10-04T19:56:07.166Z,100.00
2023-10-04T19:58:34.704Z,100.00
2023-10-04T20:01:02.874Z,100.00
2023-10-04T20:03:33.069Z,100.00
2023-10-04T20:06:01.944Z,100.00
2023-10-04T20:08:29.910Z,100.00
2023-10-04T20:11:00.163Z,100.00
2023-10-04T20:13:29.205Z,100.00
2023-10-04T20:15:59.154Z,100.00
2023-10-04T20:18:27.578Z,100.00
2023-10-04T20:20:58.055Z,100.00
2023-10-04T20:23:30.984Z,100.00
2023-10-04T20:25:59.107Z,100.00
2023-10-04T20:28:26.621Z,100.00
2023-10-04T20:30:54.263Z,100.00
2023-10-04T20:33:21.856Z,100.00
2023-10-04T20:35:49.407Z,100.00
2023-10-04T20:38:16.897Z,100.00
2023-10-04T20:40:44.472Z,100.00
2023-10-04T20:43:13.292Z,100.00
2023-10-04T20:45:40.992Z,100.00
2023-10-04T20:48:08.908Z,100.00
2023-10-04T20:50:36.472Z,100.00
2023-10-04T20:53:04.310Z,100.00
2023-10-04T20:55:32.010Z,100.00
2023-10-04T20:57:59.729Z,100.00
2023-10-04T21:00:27.579Z,100.00
2023-10-04T21:02:55.578Z,100.00
2023-10-04T21:05:23.252Z,100.00
2023-10-04T21:07:50.797Z,100.00
2023-10-04T21:10:18.498Z,100.00
2023-10-04T21:12:46.267Z,100.00
2023-10-04T21:15:16.642Z,100.00
2023-10-04T21:17:44.860Z,100.00
2023-10-04T21:20:18.981Z,100.00
2023-10-04T21:22:50.576Z,100.00
2023-10-04T21:25:19.079Z,100.00
2023-10-04T21:27:46.825Z,100.00
2023-10-04T21:30:14.744Z,100.00
2023-10-04T21:32:46.093Z,100.00
2023-10-04T21:35:21.851Z,100.00
2023-10-04T21:37:50.151Z,100.00
2023-10-04T21:40:20.566Z,100.00
2023-10-04T21:42:50.410Z,100.00
2023-10-04T21:45:26.819Z,100.00
2023-10-04T21:48:02.807Z,100.00
2023-10-04T21:50:33.878Z,100.00
2023-10-04T21:53:02.454Z,100.00
2023-10-04T21:55:31.311Z,100.00
2023-10-04T21:58:00.129Z,100.00
2023-10-04T22:00:35.704Z,100.00
2023-10-04T22:03:05.246Z,100.00
2023-10-04T22:05:37.286Z,100.00
2023-10-04T22:08:14.104Z,100.00
2023-10-04T22:10:42.797Z,100.00
2023-10-04T22:13:12.635Z,100.00
2023-10-04T22:15:40.594Z,100.00
2023-10-04T22:18:08.341Z,100.00
2023-10-04T22:20:36.075Z,100.00
2023-10-04T22:23:04.116Z,100.00
2023-10-04T22:25:31.847Z,100.00
2023-10-04T22:28:00.406Z,100.00
2023-10-04T22:30:28.310Z,100.00
2023-10-04T22:32:55.952Z,100.00
2023-10-04T22:35:25.070Z,100.00
2023-10-04T22:37:56.516Z,100.00
2023-10-04T22:40:26.238Z,100.00
2023-10-04T22:42:56.119Z,100.00
2023-10-04T22:45:24.398Z,100.00
2023-10-04T22:47:52.106Z,100.00
2023-10-04T22:50:20.047Z,100.00
2023-10-04T22:52:48.360Z,100.00
2023-10-04T22:55:17.526Z,100.00
2023-10-04T22:57:47.028Z,100.00
2023-10-04T23:00:35.829Z,100.00
2023-10-04T23:03:04.057Z,100.00
2023-10-04T23:05:31.907Z,100.00
2023-10-04T23:07:59.599Z,100.00
2023-10-04T23:10:28.297Z,100.00
2023-10-04T23:12:58.958Z,100.00
2023-10-04T23:15:26.916Z,100.00
2023-10-04T23:17:57.992Z,100.00
2023-10-04T23:20:44.051Z,100.00
2023-10-04T23:23:15.921Z,100.00
2023-10-04T23:25:47.834Z,100.00
2023-10-04T23:28:18.092Z,100.00
2023-10-04T23:30:47.882Z,100.00
2023-10-04T23:33:21.167Z,100.00
2023-10-04T23:36:00.097Z,100.00
2023-10-04T23:38:32.826Z,100.00
2023-10-04T23:41:12.618Z,100.00
2023-10-04T23:43:44.296Z,100.00
2023-10-04T23:46:24.651Z,100.00
2023-10-04T23:48:54.442Z,100.00
2023-10-04T23:51:23.621Z,100.00
2023-10-04T23:54:20.945Z,100.00
2023-10-04T23:56:58.579Z,100.00
2023-10-04T23:59:29.228Z,100.00
